Time;durP1;ratioP1;P1;durP2;ratioP2;P2;SDS_P1;SDS_P2;PMS_P1;PMS_P2;Temp;Humidity;BMP_temperature;BMP_pressure;BME280_temperature;BME280_humidity;BME280_pressure;Samples;Min_cycle;Max_cycle;Signal;HPM_P1;HPM_P2
2023/01/06 00:00:20;;;;;;;;;;;;;;;;;;1030917;28;19909;-78
2023/01/06 00:00:50;;;;;;;;;;;;;;;;;;1027591;28;19918;-79
2023/01/06 00:01:21;;;;;;;;;;;;;;;;;;1023474;29;19921;-79
2023/01/06 00:01:52;;;;;;;;;;;;;;;;;;1023533;29;20041;-78
2023/01/06 00:02:23;;;;;;;;;;;;;;;;;;1023583;28;20007;-79
2023/01/06 00:02:54;;;;;;;;;;;;;;;;;;1023491;28;20343;-78
2023/01/06 00:03:25;;;;;;;;;;;;;;;;;;1026956;28;19945;-78
2023/01/06 00:03:58;;;;;;;;;;;;;;;;;;1027529;28;20691;-78
2023/01/06 00:04:29;;;;;;;;;;;;;;;;;;1023388;29;19914;-80
2023/01/06 00:05:00;;;;;;;;;;;;;;;;;;1019663;29;19915;-78
2023/01/06 00:05:31;;;;;;;;;;;;;;;;;;1019521;29;19915;-78
2023/01/06 00:06:02;;;;;;;;;;;;;;;;;;1023581;29;20719;-78
2023/01/06 00:06:33;;;;;;;;;;;;;;;;;;1023483;29;20388;-78
2023/01/06 00:07:04;;;;;;;;;;;;;;;;;;1023644;29;19915;-79
2023/01/06 00:07:35;;;;;;;;;;;;;;;;;;1023703;29;20061;-78
2023/01/06 00:08:06;;;;;;;;;;;;;;;;;;1019992;29;20311;-79
2023/01/06 00:08:36;;;;;;;;;;;;;;;;;;1019398;29;20434;-78
2023/01/06 00:09:07;;;;;;;;;;;;;;;;;;1022275;29;20500;-77
2023/01/06 00:09:38;;;;;;;;;;;;;;;;;;1019696;29;19982;-77
2023/01/06 00:10:09;;;;;;;;;;;;;;;;;;1019620;29;19915;-78
2023/01/06 00:10:40;;;;;;;;;;;;;;;;;;1021971;29;19962;-79
2023/01/06 00:11:11;;;;;;;;;;;;;;;;;;1019517;29;20023;-78
2023/01/06 00:11:42;;;;;;;;;;;;;;;;;;1019746;29;19963;-78
2023/01/06 00:12:12;;;;;;;;;;;;;;;;;;1023569;28;20471;-79
2023/01/06 00:12:43;;;;;;;;;;;;;;;;;;1027658;28;19937;-79
2023/01/06 00:13:14;;;;;;;;;;;;;;;;;;1027408;28;20409;-79
2023/01/06 00:13:45;;;;;;;;;;;;;;;;;;1023715;29;19914;-78
2023/01/06 00:14:16;;;;;;;;;;;;;;;;;;1022415;29;20646;-78
2023/01/06 00:14:47;;;;;;;;;;;;;;;;;;1023882;29;19910;-78
2023/01/06 00:15:18;;;;;;;;;;;;;;;;;;1023407;29;19915;-78
2023/01/06 00:15:49;;;;;;;;;;;;;;;;;;1023932;28;19926;-78
2023/01/06 00:16:20;;;;;;;;;;;;;;;;;;1027870;28;20017;-79
2023/01/06 00:16:50;;;;;;;;;;;;;;;;;;1023609;29;20678;-79
2023/01/06 00:17:21;;;;;;;;;;;;;;;;;;1023266;28;19961;-78
2023/01/06 00:17:52;;;;;;;;;;;;;;;;;;1023494;29;19925;-78
2023/01/06 00:18:23;;;;;;;;;;;;;;;;;;1023557;28;19973;-78
2023/01/06 00:18:54;;;;;;;;;;;;;;;;;;1027499;28;20669;-78
2023/01/06 00:19:25;;;;;;;;;;;;;;;;;;1027120;28;19914;-79
2023/01/06 00:19:56;;;;;;;;;;;;;;;;;;1023580;28;19918;-78
2023/01/06 00:20:27;;;;;;;;;;;;;;;;;;1027492;28;19914;-78
2023/01/06 00:20:58;;;;;;;;;;;;;;;;;;1023310;29;19921;-78
2023/01/06 00:21:29;;;;;;;;;;;;;;;;;;1023396;29;19962;-78
2023/01/06 00:22:00;;;;;;;;;;;;;;;;;;1023529;29;19997;-78
2023/01/06 00:22:31;;;;;;;;;;;;;;;;;;1020253;29;20374;-78
2023/01/06 00:23:02;;;;;;;;;;;;;;;;;;1023497;29;19921;-78
2023/01/06 00:23:33;;;;;;;;;;;;;;;;;;1023304;29;20818;-78
2023/01/06 00:24:03;;;;;;;;;;;;;;;;;;1022389;29;19946;-79
2023/01/06 00:24:34;;;;;;;;;;;;;;;;;;1027002;28;19914;-78
2023/01/06 00:25:05;;;;;;;;;;;;;;;;;;1027351;28;20398;-78
2023/01/06 00:25:36;;;;;;;;;;;;;;;;;;1023507;28;19979;-77
2023/01/06 00:26:07;;;;;;;;;;;;;;;;;;1024744;28;19919;-78
2023/01/06 00:26:38;;;;;;;;;;;;;;;;;;1026365;28;20005;-78
2023/01/06 00:27:09;;;;;;;;;;;;;;;;;;1027526;28;20393;-79
2023/01/06 00:27:40;;;;;;;;;;;;;;;;;;1027660;28;19910;-79
2023/01/06 00:28:10;;;;;;;;;;;;;;;;;;1027725;28;20558;-78
2023/01/06 00:28:42;;;;;;;;;;;;;;;;;;1023453;29;19946;-78
2023/01/06 00:29:13;;;;;;;;;;;;;;;;;;1023292;29;19914;-78
2023/01/06 00:29:44;;;;;;;;;;;;;;;;;;1023362;28;20421;-78
2023/01/06 00:30:15;;;;;;;;;;;;;;;;;;1023871;28;19911;-78
2023/01/06 00:30:46;;;;;;;;;;;;;;;;;;1027623;28;19906;-77
2023/01/06 00:31:16;;;;;;;;;;;;;;;;;;1027460;28;19913;-78
2023/01/06 00:31:47;;;;;;;;;;;;;;;;;;1027397;28;19993;-79
2023/01/06 00:32:18;;;;;;;;;;;;;;;;;;1027018;28;19910;-79
2023/01/06 00:32:49;;;;;;;;;;;;;;;;;;1027561;28;19973;-79
2023/01/06 00:33:20;;;;;;;;;;;;;;;;;;1027885;28;19957;-79
2023/01/06 00:33:51;;;;;;;;;;;;;;;;;;1023531;29;20480;-79
2023/01/06 00:34:22;;;;;;;;;;;;;;;;;;1023528;29;19970;-78
2023/01/06 00:34:52;;;;;;;;;;;;;;;;;;1023164;29;19906;-79
2023/01/06 00:35:23;;;;;;;;;;;;;;;;;;1023528;28;19961;-78
2023/01/06 00:35:54;;;;;;;;;;;;;;;;;;1027362;28;19917;-78
2023/01/06 00:36:25;;;;;;;;;;;;;;;;;;1027415;28;20047;-77
2023/01/06 00:36:56;;;;;;;;;;;;;;;;;;1027403;28;19916;-79
2023/01/06 00:37:27;;;;;;;;;;;;;;;;;;1029305;28;19910;-78
2023/01/06 00:37:58;;;;;;;;;;;;;;;;;;1031744;28;19913;-78
2023/01/06 00:38:29;;;;;;;;;;;;;;;;;;1029175;28;20740;-79
2023/01/06 00:39:00;;;;;;;;;;;;;;;;;;1027940;28;19961;-78
2023/01/06 00:39:31;;;;;;;;;;;;;;;;;;1027596;28;19928;-78
2023/01/06 00:40:02;;;;;;;;;;;;;;;;;;1027638;28;19906;-78
2023/01/06 00:40:33;;;;;;;;;;;;;;;;;;1027525;28;19906;-79
2023/01/06 00:41:04;;;;;;;;;;;;;;;;;;1023405;29;19911;-78
2023/01/06 00:42:25;;;;;;;;;;;;;;;;;;1023395;29;20378;-78
2023/01/06 00:42:55;;;;;;;;;;;;;;;;;;1026214;28;20405;-79
2023/01/06 00:43:26;;;;;;;;;;;;;;;;;;1027274;28;19941;-78
2023/01/06 00:43:57;;;;;;;;;;;;;;;;;;1027450;28;19947;-79
2023/01/06 00:44:28;;;;;;;;;;;;;;;;;;1023264;29;20611;-79
2023/01/06 00:44:59;;;;;;;;;;;;;;;;;;1023467;29;19911;-79
2023/01/06 00:45:30;;;;;;;;;;;;;;;;;;1023309;29;20342;-79
2023/01/06 00:46:01;;;;;;;;;;;;;;;;;;1023849;28;20665;-78
2023/01/06 00:46:33;;;;;;;;;;;;;;;;;;1027269;28;20000;-78
2023/01/06 00:47:03;;;;;;;;;;;;;;;;;;1027331;28;19906;-78
2023/01/06 00:47:34;;;;;;;;;;;;;;;;;;1027444;28;19968;-79
2023/01/06 00:48:05;;;;;;;;;;;;;;;;;;1027593;28;20405;-79
2023/01/06 00:48:36;;;;;;;;;;;;;;;;;;1027375;28;19919;-79
2023/01/06 00:49:07;;;;;;;;;;;;;;;;;;1027342;28;20282;-80
2023/01/06 00:49:38;;;;;;;;;;;;;;;;;;1027213;28;19997;-78
2023/01/06 00:50:09;;;;;;;;;;;;;;;;;;1027102;28;19910;-79
2023/01/06 00:50:40;;;;;;;;;;;;;;;;;;1027583;28;19910;-78
2023/01/06 00:51:10;;;;;;;;;;;;;;;;;;1027222;28;20272;-77
2023/01/06 00:51:41;;;;;;;;;;;;;;;;;;1023445;29;19910;-79
2023/01/06 00:52:12;;;;;;;;;;;;;;;;;;1023407;28;20336;-79
2023/01/06 00:52:43;;;;;;;;;;;;;;;;;;1023354;29;20001;-78
2023/01/06 00:53:15;;;;;;;;;;;;;;;;;;1023325;29;20032;-78
2023/01/06 00:53:46;;;;;;;;;;;;;;;;;;1023312;29;19911;-78
2023/01/06 00:54:17;;;;;;;;;;;;;;;;;;1019306;29;20338;-78
2023/01/06 00:54:48;;;;;;;;;;;;;;;;;;1019425;29;19915;-78
2023/01/06 00:55:19;;;;;;;;;;;;;;;;;;1020706;29;19914;-79
2023/01/06 00:55:50;;;;;;;;;;;;;;;;;;1019177;29;19907;-78
2023/01/06 00:56:20;;;;;;;;;;;;;;;;;;1015600;29;19915;-78
2023/01/06 00:56:51;;;;;;;;;;;;;;;;;;1019537;29;20437;-78
2023/01/06 00:57:22;;;;;;;;;;;;;;;;;;1019478;29;19911;-78
2023/01/06 00:57:53;;;;;;;;;;;;;;;;;;1023478;28;19922;-79
2023/01/06 00:58:24;;;;;;;;;;;;;;;;;;1027468;28;19920;-78
2023/01/06 00:58:55;;;;;;;;;;;;;;;;;;1027252;28;20385;-78
2023/01/06 00:59:26;;;;;;;;;;;;;;;;;;1027323;28;19921;-79
2023/01/06 00:59:57;;;;;;;;;;;;;;;;;;1023340;29;20369;-78
2023/01/06 01:00:27;;;;;;;;;;;;;;;;;;1023061;29;20400;-79
2023/01/06 01:00:58;;;;;;;;;;;;;;;;;;1023364;29;20005;-78
2023/01/06 01:01:29;;;;;;;;;;;;;;;;;;1023509;28;20306;-79
2023/01/06 01:02:00;;;;;;;;;;;;;;;;;;1023276;29;19922;-78
2023/01/06 01:02:31;;;;;;;;;;;;;;;;;;1024787;28;20380;-78
2023/01/06 01:03:02;;;;;;;;;;;;;;;;;;1027568;28;19922;-79
2023/01/06 01:03:33;;;;;;;;;;;;;;;;;;1023402;28;19910;-78
2023/01/06 01:04:03;;;;;;;;;;;;;;;;;;1020318;29;19915;-79
2023/01/06 01:04:34;;;;;;;;;;;;;;;;;;1019670;29;19914;-78
2023/01/06 01:05:05;;;;;;;;;;;;;;;;;;1019454;29;19911;-78
2023/01/06 01:05:36;;;;;;;;;;;;;;;;;;1021005;28;19942;-78
2023/01/06 01:06:07;;;;;;;;;;;;;;;;;;1027396;28;20369;-78
2023/01/06 01:06:38;;;;;;;;;;;;;;;;;;1023174;29;19911;-78
2023/01/06 01:07:09;;;;;;;;;;;;;;;;;;1023470;28;20370;-79
2023/01/06 01:07:40;;;;;;;;;;;;;;;;;;1023142;29;20785;-77
2023/01/06 01:08:11;;;;;;;;;;;;;;;;;;1023370;29;19938;-78
2023/01/06 01:08:42;;;;;;;;;;;;;;;;;;1023355;29;19907;-77
2023/01/06 01:09:13;;;;;;;;;;;;;;;;;;1026645;28;20001;-78
2023/01/06 01:09:44;;;;;;;;;;;;;;;;;;1027339;28;19921;-77
2023/01/06 01:10:15;;;;;;;;;;;;;;;;;;1027282;28;19910;-78
2023/01/06 01:10:46;;;;;;;;;;;;;;;;;;1027267;28;19933;-78
2023/01/06 01:12:09;;;;;;;;;;;;;;;;;;1027559;28;19921;-78
2023/01/06 01:12:40;;;;;;;;;;;;;;;;;;1023095;28;19941;-78
2023/01/06 01:13:11;;;;;;;;;;;;;;;;;;1023327;29;19911;-79
2023/01/06 01:13:42;;;;;;;;;;;;;;;;;;1023312;29;19918;-78
2023/01/06 01:14:12;;;;;;;;;;;;;;;;;;1023503;28;20052;-79
2023/01/06 01:14:45;;;;;;;;;;;;;;;;;;1023133;28;19906;-78
2023/01/06 01:15:16;;;;;;;;;;;;;;;;;;1023330;29;19918;-78
2023/01/06 01:15:48;;;;;;;;;;;;;;;;;;1023195;29;19993;-79
2023/01/06 01:16:19;;;;;;;;;;;;;;;;;;1024054;28;19911;-78
2023/01/06 01:16:50;;;;;;;;;;;;;;;;;;1027342;28;19910;-78
2023/01/06 01:17:21;;;;;;;;;;;;;;;;;;1023153;29;19937;-78
2023/01/06 01:17:52;;;;;;;;;;;;;;;;;;1023310;29;19993;-78
2023/01/06 01:18:23;;;;;;;;;;;;;;;;;;1023370;29;19914;-78
2023/01/06 01:18:54;;;;;;;;;;;;;;;;;;1023398;28;19910;-78
2023/01/06 01:19:24;;;;;;;;;;;;;;;;;;1027249;28;20009;-79
2023/01/06 01:19:56;;;;;;;;;;;;;;;;;;1023262;29;20001;-78
2023/01/06 01:20:27;;;;;;;;;;;;;;;;;;1023565;29;19929;-79
2023/01/06 01:20:58;;;;;;;;;;;;;;;;;;1019420;29;19948;-79
2023/01/06 01:21:29;;;;;;;;;;;;;;;;;;1019428;29;20703;-78
2023/01/06 01:22:00;;;;;;;;;;;;;;;;;;1022872;29;19918;-79
2023/01/06 01:22:30;;;;;;;;;;;;;;;;;;1019347;29;20536;-78
2023/01/06 01:23:01;;;;;;;;;;;;;;;;;;1023358;29;19914;-79
2023/01/06 01:23:32;;;;;;;;;;;;;;;;;;1019565;29;19910;-78
2023/01/06 01:24:03;;;;;;;;;;;;;;;;;;1019651;29;19911;-79
2023/01/06 01:24:34;;;;;;;;;;;;;;;;;;1027096;28;19929;-79
2023/01/06 01:25:05;;;;;;;;;;;;;;;;;;1027325;28;19917;-78
2023/01/06 01:25:36;;;;;;;;;;;;;;;;;;1027372;28;19964;-79
2023/01/06 01:26:06;;;;;;;;;;;;;;;;;;1023121;29;19910;-79
2023/01/06 01:26:37;;;;;;;;;;;;;;;;;;1020341;29;19911;-78
2023/01/06 01:27:08;;;;;;;;;;;;;;;;;;1019362;29;19999;-79
2023/01/06 01:27:39;;;;;;;;;;;;;;;;;;1019425;29;20289;-78
2023/01/06 01:28:10;;;;;;;;;;;;;;;;;;1020823;29;19966;-78
2023/01/06 01:28:41;;;;;;;;;;;;;;;;;;1019162;29;20577;-78
2023/01/06 01:29:12;;;;;;;;;;;;;;;;;;1019212;29;19911;-78
2023/01/06 01:29:43;;;;;;;;;;;;;;;;;;1019392;29;19911;-79
2023/01/06 01:30:13;;;;;;;;;;;;;;;;;;1019493;29;20001;-78
2023/01/06 01:30:44;;;;;;;;;;;;;;;;;;1023284;29;19911;-79
2023/01/06 01:31:15;;;;;;;;;;;;;;;;;;1023290;29;19914;-79
2023/01/06 01:31:46;;;;;;;;;;;;;;;;;;1023484;28;20001;-79
2023/01/06 01:32:17;;;;;;;;;;;;;;;;;;1027183;28;19917;-79
2023/01/06 01:32:48;;;;;;;;;;;;;;;;;;1023325;29;20013;-78
2023/01/06 01:33:19;;;;;;;;;;;;;;;;;;1023206;29;19911;-78
2023/01/06 01:33:49;;;;;;;;;;;;;;;;;;1023134;29;19977;-79
2023/01/06 01:34:20;;;;;;;;;;;;;;;;;;1023403;28;20361;-78
2023/01/06 01:34:51;;;;;;;;;;;;;;;;;;1023711;28;19911;-78
2023/01/06 01:35:22;;;;;;;;;;;;;;;;;;1027094;28;19910;-78
2023/01/06 01:35:53;;;;;;;;;;;;;;;;;;1027237;28;20386;-78
2023/01/06 01:36:24;;;;;;;;;;;;;;;;;;1027217;28;20020;-78
2023/01/06 01:36:55;;;;;;;;;;;;;;;;;;1027247;28;20562;-78
2023/01/06 01:37:26;;;;;;;;;;;;;;;;;;1022782;29;19985;-78
2023/01/06 01:37:57;;;;;;;;;;;;;;;;;;1019668;29;19911;-79
2023/01/06 01:38:28;;;;;;;;;;;;;;;;;;1023122;29;19942;-78
2023/01/06 01:38:59;;;;;;;;;;;;;;;;;;1023432;29;19911;-78
2023/01/06 01:39:29;;;;;;;;;;;;;;;;;;1019194;29;19911;-79
2023/01/06 01:40:00;;;;;;;;;;;;;;;;;;1022364;29;19997;-78
2023/01/06 01:40:31;;;;;;;;;;;;;;;;;;1023248;29;19958;-78
2023/01/06 01:41:02;;;;;;;;;;;;;;;;;;1023270;29;20376;-79
2023/01/06 01:41:33;;;;;;;;;;;;;;;;;;1023115;29;19965;-78
2023/01/06 01:42:04;;;;;;;;;;;;;;;;;;1023260;29;20707;-79
2023/01/06 01:42:35;;;;;;;;;;;;;;;;;;1019153;29;20001;-79
2023/01/06 01:43:05;;;;;;;;;;;;;;;;;;1019207;29;19959;-79
2023/01/06 01:43:36;;;;;;;;;;;;;;;;;;1019241;29;19935;-78
2023/01/06 01:44:07;;;;;;;;;;;;;;;;;;1019538;29;20044;-78
2023/01/06 01:44:38;;;;;;;;;;;;;;;;;;1023090;29;20712;-78
2023/01/06 01:45:09;;;;;;;;;;;;;;;;;;1023133;29;19911;-79
2023/01/06 01:45:40;;;;;;;;;;;;;;;;;;1023415;28;19917;-78
2023/01/06 01:46:11;;;;;;;;;;;;;;;;;;1023271;29;19998;-79
2023/01/06 01:46:42;;;;;;;;;;;;;;;;;;1023249;29;19906;-79
2023/01/06 01:47:13;;;;;;;;;;;;;;;;;;1022994;29;20613;-78
2023/01/06 01:47:44;;;;;;;;;;;;;;;;;;1023647;28;19994;-79
2023/01/06 01:48:14;;;;;;;;;;;;;;;;;;1027331;28;20302;-78
2023/01/06 01:48:45;;;;;;;;;;;;;;;;;;1027286;28;20279;-78
2023/01/06 01:49:16;;;;;;;;;;;;;;;;;;1022989;29;19907;-79
2023/01/06 01:49:47;;;;;;;;;;;;;;;;;;1023290;29;19910;-79
2023/01/06 01:50:18;;;;;;;;;;;;;;;;;;1023234;29;20453;-78
2023/01/06 01:50:49;;;;;;;;;;;;;;;;;;1023247;28;19910;-78
2023/01/06 01:51:20;;;;;;;;;;;;;;;;;;1023998;28;20346;-78
2023/01/06 01:51:50;;;;;;;;;;;;;;;;;;1025242;28;19910;-79
2023/01/06 01:52:21;;;;;;;;;;;;;;;;;;1023340;29;20711;-78
2023/01/06 01:52:52;;;;;;;;;;;;;;;;;;1023260;28;19991;-78
2023/01/06 01:53:23;;;;;;;;;;;;;;;;;;1027247;28;19969;-79
2023/01/06 01:53:54;;;;;;;;;;;;;;;;;;1023125;29;19910;-79
2023/01/06 01:54:28;;;;;;;;;;;;;;;;;;1023054;29;20647;-78
2023/01/06 01:54:58;;;;;;;;;;;;;;;;;;1023125;28;20054;-78
2023/01/06 01:55:29;;;;;;;;;;;;;;;;;;1023376;28;19948;-78
2023/01/06 01:56:00;;;;;;;;;;;;;;;;;;1022896;29;20058;-78
2023/01/06 01:56:31;;;;;;;;;;;;;;;;;;1023267;29;19910;-79
2023/01/06 01:57:02;;;;;;;;;;;;;;;;;;1023016;29;19914;-79
2023/01/06 01:57:33;;;;;;;;;;;;;;;;;;1023283;28;19953;-78
2023/01/06 01:58:04;;;;;;;;;;;;;;;;;;1027403;28;19921;-78
2023/01/06 01:58:35;;;;;;;;;;;;;;;;;;1022961;29;19915;-78
2023/01/06 01:59:06;;;;;;;;;;;;;;;;;;1023234;29;20005;-78
2023/01/06 01:59:36;;;;;;;;;;;;;;;;;;1023247;29;19915;-78
2023/01/06 02:00:08;;;;;;;;;;;;;;;;;;1023335;28;20001;-78
2023/01/06 02:00:39;;;;;;;;;;;;;;;;;;1027008;28;20007;-79
2023/01/06 02:01:10;;;;;;;;;;;;;;;;;;1026890;28;19964;-78
2023/01/06 02:01:40;;;;;;;;;;;;;;;;;;1027155;28;19914;-77
2023/01/06 02:02:11;;;;;;;;;;;;;;;;;;1026933;28;19921;-77
2023/01/06 02:02:42;;;;;;;;;;;;;;;;;;1027153;28;20642;-78
2023/01/06 02:03:13;;;;;;;;;;;;;;;;;;1026945;28;19914;-78
2023/01/06 02:03:44;;;;;;;;;;;;;;;;;;1026416;28;20013;-78
2023/01/06 02:04:15;;;;;;;;;;;;;;;;;;1023951;28;19914;-78
2023/01/06 02:04:46;;;;;;;;;;;;;;;;;;1023065;29;19914;-78
2023/01/06 02:05:17;;;;;;;;;;;;;;;;;;1022950;29;20350;-78
2023/01/06 02:05:47;;;;;;;;;;;;;;;;;;1019130;29;19939;-80
2023/01/06 02:06:18;;;;;;;;;;;;;;;;;;1019795;29;20978;-80
2023/01/06 02:06:49;;;;;;;;;;;;;;;;;;1022860;29;20021;-79
2023/01/06 02:07:20;;;;;;;;;;;;;;;;;;1023325;28;19917;-79
2023/01/06 02:07:51;;;;;;;;;;;;;;;;;;1022957;29;20367;-77
2023/01/06 02:08:22;;;;;;;;;;;;;;;;;;1022790;28;19907;-77
2023/01/06 02:08:53;;;;;;;;;;;;;;;;;;1023206;29;20032;-77
2023/01/06 02:09:24;;;;;;;;;;;;;;;;;;1023288;28;20318;-77
2023/01/06 02:09:55;;;;;;;;;;;;;;;;;;1026980;28;20005;-79
2023/01/06 02:10:26;;;;;;;;;;;;;;;;;;1027012;28;20478;-78
2023/01/06 02:10:57;;;;;;;;;;;;;;;;;;1027194;28;19918;-79
2023/01/06 02:11:27;;;;;;;;;;;;;;;;;;1027206;28;20266;-79
2023/01/06 02:11:58;;;;;;;;;;;;;;;;;;1027091;28;19933;-79
2023/01/06 02:12:29;;;;;;;;;;;;;;;;;;1023054;29;20285;-79
2023/01/06 02:13:00;;;;;;;;;;;;;;;;;;1023292;29;19911;-79
2023/01/06 02:13:31;;;;;;;;;;;;;;;;;;1023148;29;20382;-79
2023/01/06 02:14:02;;;;;;;;;;;;;;;;;;1020550;29;20458;-79
2023/01/06 02:14:33;;;;;;;;;;;;;;;;;;1023019;28;19918;-78
2023/01/06 02:15:04;;;;;;;;;;;;;;;;;;1023121;29;19922;-79
2023/01/06 02:15:35;;;;;;;;;;;;;;;;;;1023096;29;19911;-79
2023/01/06 02:16:06;;;;;;;;;;;;;;;;;;1023325;28;20429;-78
2023/01/06 02:16:37;;;;;;;;;;;;;;;;;;1026982;28;19914;-79
2023/01/06 02:17:07;;;;;;;;;;;;;;;;;;1027214;28;20395;-79
2023/01/06 02:17:38;;;;;;;;;;;;;;;;;;1027020;28;19910;-79
2023/01/06 02:18:09;;;;;;;;;;;;;;;;;;1026855;28;20309;-78
2023/01/06 02:18:40;;;;;;;;;;;;;;;;;;1027183;28;19985;-78
2023/01/06 02:19:11;;;;;;;;;;;;;;;;;;1027052;28;20005;-77
2023/01/06 02:19:42;;;;;;;;;;;;;;;;;;1026979;28;19918;-76
2023/01/06 02:20:13;;;;;;;;;;;;;;;;;;1026963;28;20005;-77
2023/01/06 02:20:43;;;;;;;;;;;;;;;;;;1027140;28;20000;-76
2023/01/06 02:21:14;;;;;;;;;;;;;;;;;;1027042;28;19910;-79
2023/01/06 02:21:45;;;;;;;;;;;;;;;;;;1024264;28;19911;-77
2023/01/06 02:22:16;;;;;;;;;;;;;;;;;;1026946;28;20427;-78
2023/01/06 02:22:47;;;;;;;;;;;;;;;;;;1023171;29;19915;-77
2023/01/06 02:23:18;;;;;;;;;;;;;;;;;;1021239;28;20017;-78
2023/01/06 02:23:49;;;;;;;;;;;;;;;;;;1023253;29;19910;-78
2023/01/06 02:24:19;;;;;;;;;;;;;;;;;;1023286;28;19911;-78
2023/01/06 02:24:50;;;;;;;;;;;;;;;;;;1022743;28;19933;-77
2023/01/06 02:25:21;;;;;;;;;;;;;;;;;;1023107;29;20054;-77
2023/01/06 02:25:52;;;;;;;;;;;;;;;;;;1020087;29;19926;-77
2023/01/06 02:26:23;;;;;;;;;;;;;;;;;;1018975;29;19915;-77
2023/01/06 02:26:57;;;;;;;;;;;;;;;;;;1019648;29;20017;-78
2023/01/06 02:27:27;;;;;;;;;;;;;;;;;;1019850;29;19918;-77
2023/01/06 02:27:58;;;;;;;;;;;;;;;;;;1022149;29;19914;-77
2023/01/06 02:28:29;;;;;;;;;;;;;;;;;;1024412;28;20001;-78
2023/01/06 02:29:00;;;;;;;;;;;;;;;;;;1027994;28;19914;-77
2023/01/06 02:29:31;;;;;;;;;;;;;;;;;;1028346;28;19914;-78
2023/01/06 02:30:02;;;;;;;;;;;;;;;;;;1028076;28;19949;-77
2023/01/06 02:30:33;;;;;;;;;;;;;;;;;;1028069;28;19921;-78
2023/01/06 02:31:03;;;;;;;;;;;;;;;;;;1028264;28;19961;-77
2023/01/06 02:31:34;;;;;;;;;;;;;;;;;;1028138;28;20012;-77
2023/01/06 02:32:05;;;;;;;;;;;;;;;;;;1028033;28;19917;-78
2023/01/06 02:32:36;;;;;;;;;;;;;;;;;;1028167;28;19914;-77
2023/01/06 02:33:07;;;;;;;;;;;;;;;;;;1028186;28;19921;-78
2023/01/06 02:33:38;;;;;;;;;;;;;;;;;;1023770;29;19921;-77
2023/01/06 02:34:09;;;;;;;;;;;;;;;;;;1019919;29;20013;-78
2023/01/06 02:34:40;;;;;;;;;;;;;;;;;;1019976;29;19919;-77
2023/01/06 02:35:11;;;;;;;;;;;;;;;;;;1020133;29;19915;-77
2023/01/06 02:35:42;;;;;;;;;;;;;;;;;;1024227;28;19946;-77
2023/01/06 02:36:13;;;;;;;;;;;;;;;;;;1023841;29;19915;-78
2023/01/06 02:36:44;;;;;;;;;;;;;;;;;;1019844;29;19926;-77
2023/01/06 02:37:15;;;;;;;;;;;;;;;;;;1019813;29;20357;-77
2023/01/06 02:37:45;;;;;;;;;;;;;;;;;;1020005;29;19923;-77
2023/01/06 02:38:16;;;;;;;;;;;;;;;;;;1023803;28;19914;-77
2023/01/06 02:38:47;;;;;;;;;;;;;;;;;;1027868;28;20015;-77
2023/01/06 02:39:18;;;;;;;;;;;;;;;;;;1027623;28;19914;-78
2023/01/06 02:39:49;;;;;;;;;;;;;;;;;;1025744;28;19921;-78
2023/01/06 02:40:20;;;;;;;;;;;;;;;;;;1023095;28;19973;-77
2023/01/06 02:40:51;;;;;;;;;;;;;;;;;;1023990;29;19935;-77
2023/01/06 02:41:22;;;;;;;;;;;;;;;;;;1023935;29;20314;-78
2023/01/06 02:41:53;;;;;;;;;;;;;;;;;;1023757;28;20390;-78
2023/01/06 02:42:24;;;;;;;;;;;;;;;;;;1023834;29;19925;-78
2023/01/06 02:42:55;;;;;;;;;;;;;;;;;;1023948;29;19953;-77
2023/01/06 02:43:26;;;;;;;;;;;;;;;;;;1023967;28;20723;-77
2023/01/06 02:43:57;;;;;;;;;;;;;;;;;;1024670;28;19914;-78
2023/01/06 02:44:28;;;;;;;;;;;;;;;;;;1024266;28;20422;-77
2023/01/06 02:44:59;;;;;;;;;;;;;;;;;;1023899;29;20355;-77
2023/01/06 02:45:29;;;;;;;;;;;;;;;;;;1023666;29;19961;-78
2023/01/06 02:46:00;;;;;;;;;;;;;;;;;;1023826;29;20326;-77
2023/01/06 02:46:31;;;;;;;;;;;;;;;;;;1024085;28;19914;-78
2023/01/06 02:47:02;;;;;;;;;;;;;;;;;;1028215;28;19941;-78
2023/01/06 02:47:33;;;;;;;;;;;;;;;;;;1028490;28;20627;-78
2023/01/06 02:48:04;;;;;;;;;;;;;;;;;;1027879;28;19949;-77
2023/01/06 02:48:35;;;;;;;;;;;;;;;;;;1023509;29;19942;-76
2023/01/06 02:49:06;;;;;;;;;;;;;;;;;;1023952;29;19915;-77
2023/01/06 02:49:37;;;;;;;;;;;;;;;;;;1023660;29;20009;-77
2023/01/06 02:50:08;;;;;;;;;;;;;;;;;;1023961;29;19915;-80
2023/01/06 02:50:38;;;;;;;;;;;;;;;;;;1030511;28;19964;-77
2023/01/06 02:51:09;;;;;;;;;;;;;;;;;;1023848;29;20571;-77
2023/01/06 02:51:40;;;;;;;;;;;;;;;;;;1023780;29;19920;-78
2023/01/06 02:52:11;;;;;;;;;;;;;;;;;;1023649;29;19982;-78
2023/01/06 02:52:42;;;;;;;;;;;;;;;;;;1024238;28;20414;-77
2023/01/06 02:53:13;;;;;;;;;;;;;;;;;;1027811;28;19917;-77
2023/01/06 02:53:44;;;;;;;;;;;;;;;;;;1023720;29;20334;-77
2023/01/06 02:54:14;;;;;;;;;;;;;;;;;;1023909;29;19945;-76
2023/01/06 02:54:45;;;;;;;;;;;;;;;;;;1023617;29;19918;-77
2023/01/06 02:55:16;;;;;;;;;;;;;;;;;;1023997;28;19918;-77
2023/01/06 02:55:47;;;;;;;;;;;;;;;;;;1027578;28;19918;-78
2023/01/06 02:56:18;;;;;;;;;;;;;;;;;;1027729;28;19978;-77
2023/01/06 02:56:49;;;;;;;;;;;;;;;;;;1027726;28;20004;-78
2023/01/06 02:57:20;;;;;;;;;;;;;;;;;;1027759;28;19914;-78
2023/01/06 02:57:50;;;;;;;;;;;;;;;;;;1027802;28;19910;-78
2023/01/06 02:58:21;;;;;;;;;;;;;;;;;;1028003;28;20420;-78
2023/01/06 02:58:52;;;;;;;;;;;;;;;;;;1027765;28;19914;-78
2023/01/06 02:59:23;;;;;;;;;;;;;;;;;;1027991;28;19946;-79
2023/01/06 02:59:55;;;;;;;;;;;;;;;;;;1028211;28;20318;-78
2023/01/06 03:00:26;;;;;;;;;;;;;;;;;;1023808;29;19913;-78
2023/01/06 03:00:58;;;;;;;;;;;;;;;;;;1024022;29;19930;-77
2023/01/06 03:01:28;;;;;;;;;;;;;;;;;;1023875;29;19914;-78
2023/01/06 03:01:59;;;;;;;;;;;;;;;;;;1024040;28;20021;-78
2023/01/06 03:02:30;;;;;;;;;;;;;;;;;;1027691;28;19957;-78
2023/01/06 03:03:03;;;;;;;;;;;;;;;;;;1027843;28;19918;-79
2023/01/06 03:03:34;;;;;;;;;;;;;;;;;;1028022;28;20401;-78
2023/01/06 03:04:04;;;;;;;;;;;;;;;;;;1028222;28;20313;-78
2023/01/06 03:04:35;;;;;;;;;;;;;;;;;;1028207;28;20481;-79
2023/01/06 03:05:06;;;;;;;;;;;;;;;;;;1028188;28;20056;-78
2023/01/06 03:05:37;;;;;;;;;;;;;;;;;;1028128;28;20388;-78
2023/01/06 03:06:08;;;;;;;;;;;;;;;;;;1028198;28;19956;-78
2023/01/06 03:06:43;;;;;;;;;;;;;;;;;;1023763;29;19938;-78
2023/01/06 03:07:14;;;;;;;;;;;;;;;;;;1023728;29;19969;-77
2023/01/06 03:07:48;;;;;;;;;;;;;;;;;;1023774;29;20447;-79
2023/01/06 03:08:19;;;;;;;;;;;;;;;;;;1023678;29;20307;-78
2023/01/06 03:08:50;;;;;;;;;;;;;;;;;;1019937;29;20736;-78
2023/01/06 03:09:20;;;;;;;;;;;;;;;;;;1020175;29;19946;-78
2023/01/06 03:09:51;;;;;;;;;;;;;;;;;;1023767;29;19918;-78
2023/01/06 03:10:23;;;;;;;;;;;;;;;;;;1019541;29;19985;-77
2023/01/06 03:10:54;;;;;;;;;;;;;;;;;;1020052;29;20009;-78
2023/01/06 03:11:25;;;;;;;;;;;;;;;;;;1023677;29;19983;-79
2023/01/06 03:11:56;;;;;;;;;;;;;;;;;;1024107;28;19915;-78
2023/01/06 03:12:27;;;;;;;;;;;;;;;;;;1023580;29;20004;-78
2023/01/06 03:12:58;;;;;;;;;;;;;;;;;;1023646;29;19914;-78
2023/01/06 03:13:29;;;;;;;;;;;;;;;;;;1019825;29;19949;-79
2023/01/06 03:13:59;;;;;;;;;;;;;;;;;;1020209;29;20002;-78
2023/01/06 03:14:30;;;;;;;;;;;;;;;;;;1019761;29;19919;-78
2023/01/06 03:15:02;;;;;;;;;;;;;;;;;;1020162;29;19911;-78
2023/01/06 03:15:32;;;;;;;;;;;;;;;;;;1023674;29;19944;-78
2023/01/06 03:16:03;;;;;;;;;;;;;;;;;;1024110;28;20290;-78
2023/01/06 03:16:34;;;;;;;;;;;;;;;;;;1027907;28;20005;-78
2023/01/06 03:17:05;;;;;;;;;;;;;;;;;;1028227;28;19921;-78
2023/01/06 03:17:36;;;;;;;;;;;;;;;;;;1023665;29;20642;-78
2023/01/06 03:18:07;;;;;;;;;;;;;;;;;;1023430;29;20405;-76
2023/01/06 03:18:38;;;;;;;;;;;;;;;;;;1023773;28;19950;-78
2023/01/06 03:19:09;;;;;;;;;;;;;;;;;;1023992;28;19999;-78
2023/01/06 03:19:39;;;;;;;;;;;;;;;;;;1023584;29;20001;-78
2023/01/06 03:20:10;;;;;;;;;;;;;;;;;;1023671;29;20516;-78
2023/01/06 03:20:41;;;;;;;;;;;;;;;;;;1023856;29;19923;-79
2023/01/06 03:21:12;;;;;;;;;;;;;;;;;;1023635;28;19915;-78
2023/01/06 03:21:43;;;;;;;;;;;;;;;;;;1023853;28;19914;-78
2023/01/06 03:22:14;;;;;;;;;;;;;;;;;;1019608;29;19933;-78
2023/01/06 03:22:45;;;;;;;;;;;;;;;;;;1019836;29;19914;-78
2023/01/06 03:23:16;;;;;;;;;;;;;;;;;;1019907;29;20635;-80
2023/01/06 03:23:46;;;;;;;;;;;;;;;;;;1024119;28;19910;-77
2023/01/06 03:24:17;;;;;;;;;;;;;;;;;;1028167;28;19956;-78
2023/01/06 03:24:48;;;;;;;;;;;;;;;;;;1028182;28;19914;-78
2023/01/06 03:25:19;;;;;;;;;;;;;;;;;;1023672;29;19911;-79
2023/01/06 03:25:50;;;;;;;;;;;;;;;;;;1023758;29;20464;-78
2023/01/06 03:26:21;;;;;;;;;;;;;;;;;;1023655;29;19914;-78
2023/01/06 03:26:52;;;;;;;;;;;;;;;;;;1023688;29;20420;-77
2023/01/06 03:27:23;;;;;;;;;;;;;;;;;;1023873;29;19910;-79
2023/01/06 03:27:54;;;;;;;;;;;;;;;;;;1023669;29;19911;-79
2023/01/06 03:28:25;;;;;;;;;;;;;;;;;;1019641;29;19911;-78
2023/01/06 03:28:56;;;;;;;;;;;;;;;;;;1019771;29;19911;-79
2023/01/06 03:29:27;;;;;;;;;;;;;;;;;;1020060;28;19946;-78
2023/01/06 03:29:57;;;;;;;;;;;;;;;;;;1027613;28;19956;-79
2023/01/06 03:30:28;;;;;;;;;;;;;;;;;;1027744;28;19969;-78
2023/01/06 03:30:59;;;;;;;;;;;;;;;;;;1027793;28;19917;-78
2023/01/06 03:31:31;;;;;;;;;;;;;;;;;;1023364;29;20355;-79
2023/01/06 03:32:02;;;;;;;;;;;;;;;;;;1023390;29;19941;-79
2023/01/06 03:32:32;;;;;;;;;;;;;;;;;;1019644;29;19917;-76
2023/01/06 03:33:03;;;;;;;;;;;;;;;;;;1020052;29;19915;-76